createdAt,value
2022-09-15T00:01:03.076Z,1.70
2022-09-15T00:03:30.320Z,1.70
2022-09-15T00:05:57.492Z,1.40
2022-09-15T00:08:25.439Z,1.63
2022-09-15T00:10:58.541Z,1.90
2022-09-15T00:15:53.638Z,1.67
2022-09-15T00:18:21.461Z,1.30
2022-09-15T00:20:48.664Z,1.85
2022-09-15T00:23:16.839Z,1.65
2022-09-15T00:25:53.588Z,1.17
2022-09-15T00:28:22.233Z,1.30
2022-09-15T00:30:53.039Z,1.52
2022-09-15T00:33:22.007Z,1.83
2022-09-15T00:35:51.200Z,1.65
2022-09-15T00:38:19.412Z,1.52
2022-09-15T00:40:52.321Z,1.67
2022-09-15T00:43:54.128Z,1.75
2022-09-15T00:46:24.825Z,1.17
2022-09-15T00:48:57.483Z,1.50
2022-09-15T00:51:53.558Z,1.63
2022-09-15T00:54:53.787Z,1.75
2022-09-15T00:57:23.763Z,1.50
2022-09-15T00:59:53.243Z,1.70
2022-09-15T01:02:25.920Z,1.67
2022-09-15T01:04:58.132Z,1.77
2022-09-15T01:07:32.300Z,1.60
2022-09-15T01:10:04.704Z,1.70
2022-09-15T01:12:32.488Z,1.77
2022-09-15T01:15:02.790Z,2.30
2022-09-15T01:17:40.428Z,1.70
2022-09-15T01:20:37.903Z,1.75
2022-09-15T01:23:24.467Z,1.60
2022-09-15T01:26:03.706Z,1.70
2022-09-15T01:28:49.549Z,2.40
2022-09-15T01:32:03.844Z,2.08
2022-09-15T01:34:41.707Z,1.73
2022-09-15T01:37:17.883Z,1.52
2022-09-15T01:39:48.109Z,2.10
2022-09-15T01:42:16.755Z,2.05
2022-09-15T01:44:55.840Z,2.28
2022-09-15T01:47:25.915Z,2.53
2022-09-15T01:50:00.479Z,1.85
2022-09-15T01:52:29.163Z,2.35
2022-09-15T01:55:00.493Z,1.98
2022-09-15T01:57:28.117Z,2.55
2022-09-15T01:59:56.546Z,1.70
2022-09-15T02:02:33.267Z,1.90
2022-09-15T02:05:13.569Z,2.50
2022-09-15T02:08:05.357Z,2.45
2022-09-15T02:11:00.805Z,2.25
2022-09-15T02:14:21.878Z,2.08
2022-09-15T02:16:52.693Z,1.85
2022-09-15T02:19:31.927Z,1.63
2022-09-15T02:22:28.769Z,1.70
2022-09-15T02:25:09.768Z,1.90
2022-09-15T02:27:47.200Z,2.22
2022-09-15T02:30:16.719Z,2.50
2022-09-15T02:32:59.340Z,2.78
2022-09-15T02:35:29.894Z,2.88
2022-09-15T02:37:58.799Z,1.88
2022-09-15T02:40:29.122Z,2.50
2022-09-15T02:43:01.060Z,2.30
2022-09-15T02:45:31.083Z,2.45
2022-09-15T02:47:59.183Z,2.70
2022-09-15T02:50:26.922Z,2.83
2022-09-15T02:52:55.661Z,1.70
2022-09-15T02:55:24.188Z,2.10
2022-09-15T02:57:51.384Z,2.10
2022-09-15T03:00:19.377Z,2.20
2022-09-15T03:02:50.227Z,2.47
2022-09-15T03:05:20.343Z,2.90
2022-09-15T03:07:48.091Z,3.15
2022-09-15T03:10:16.164Z,2.42
2022-09-15T03:12:45.843Z,2.20
2022-09-15T03:15:15.593Z,2.47
2022-09-15T03:17:44.025Z,2.30
2022-09-15T03:20:15.015Z,2.10
2022-09-15T03:22:42.610Z,2.58
2022-09-15T03:25:11.280Z,2.25
2022-09-15T03:27:38.544Z,2.42
2022-09-15T03:30:07.184Z,2.35
2022-09-15T03:32:34.608Z,2.50
2022-09-15T03:35:02.054Z,2.45
2022-09-15T03:37:29.319Z,2.30
2022-09-15T03:39:56.852Z,2.00
2022-09-15T03:42:24.216Z,2.55
2022-09-15T03:44:51.398Z,3.38
2022-09-15T03:47:18.572Z,2.53
2022-09-15T03:49:45.780Z,2.53
2022-09-15T03:52:12.960Z,3.08
2022-09-15T03:54:40.125Z,2.60
2022-09-15T03:57:07.328Z,2.33
2022-09-15T03:59:34.615Z,3.05
2022-09-15T04:02:01.902Z,3.13
2022-09-15T04:04:29.179Z,2.58
2022-09-15T04:06:56.374Z,2.58
2022-09-15T04:09:24.833Z,1.90
2022-09-15T04:11:52.091Z,3.25
2022-09-15T04:14:19.259Z,2.75
2022-09-15T04:16:46.679Z,2.83
2022-09-15T04:19:14.383Z,2.80
2022-09-15T04:21:41.627Z,2.42
2022-09-15T04:24:08.848Z,1.70
2022-09-15T04:26:37.501Z,2.33
2022-09-15T04:29:11.539Z,2.53
2022-09-15T04:31:40.174Z,2.20
2022-09-15T04:34:07.479Z,2.45
2022-09-15T04:36:34.822Z,2.00
2022-09-15T04:39:02.107Z,2.75
2022-09-15T04:41:29.399Z,2.22
2022-09-15T04:43:56.648Z,2.70
2022-09-15T04:46:23.951Z,2.53
2022-09-15T04:48:52.330Z,3.45
2022-09-15T04:51:22.041Z,3.13
2022-09-15T04:53:50.321Z,1.80
2022-09-15T04:56:21.184Z,2.60
2022-09-15T04:58:51.892Z,1.98
2022-09-15T05:01:21.904Z,1.67
2022-09-15T05:03:49.815Z,2.42
2022-09-15T05:06:21.231Z,2.38
2022-09-15T05:08:53.782Z,2.20
2022-09-15T05:11:21.931Z,2.03
2022-09-15T05:13:49.728Z,2.63
2022-09-15T05:16:25.616Z,2.25
2022-09-15T05:18:54.899Z,2.83
2022-09-15T05:21:23.648Z,2.60
2022-09-15T05:23:52.003Z,1.80
2022-09-15T05:26:22.000Z,2.20
2022-09-15T05:28:50.097Z,1.80
2022-09-15T05:31:19.666Z,1.65
2022-09-15T05:33:48.953Z,2.20
2022-09-15T05:36:17.433Z,2.10
2022-09-15T05:38:45.192Z,2.35
2022-09-15T05:41:16.089Z,2.20
2022-09-15T05:43:46.142Z,2.75
2022-09-15T05:46:14.457Z,2.50
2022-09-15T05:48:42.303Z,2.15
2022-09-15T05:51:09.591Z,2.13
2022-09-15T05:53:37.485Z,2.60
2022-09-15T05:56:08.236Z,2.63
2022-09-15T05:58:35.668Z,1.85
2022-09-15T06:01:06.948Z,1.85
2022-09-15T06:03:35.578Z,1.13
2022-09-15T06:06:05.005Z,1.65
2022-09-15T06:08:34.653Z,2.40
2022-09-15T06:11:12.746Z,2.00
2022-09-15T06:13:40.280Z,1.85
2022-09-15T06:16:12.783Z,1.90
2022-09-15T06:18:41.332Z,1.42
2022-09-15T06:21:11.072Z,1.92
2022-09-15T06:23:38.908Z,2.00
2022-09-15T06:26:06.364Z,2.85
2022-09-15T06:28:33.888Z,1.58
2022-09-15T06:31:01.231Z,1.63
2022-09-15T06:33:31.562Z,2.03
2022-09-15T06:36:01.139Z,1.80
2022-09-15T06:38:28.530Z,1.65
2022-09-15T06:40:57.613Z,1.98
2022-09-15T06:43:26.040Z,1.45
2022-09-15T06:45:53.314Z,1.80
2022-09-15T06:48:24.868Z,1.80
2022-09-15T06:50:56.006Z,2.50
2022-09-15T06:53:23.361Z,2.13
2022-09-15T06:55:50.543Z,1.80
2022-09-15T06:58:17.723Z,1.63
2022-09-15T07:00:44.979Z,1.88
2022-09-15T07:03:12.457Z,1.65
2022-09-15T07:05:40.877Z,1.80
2022-09-15T07:08:08.112Z,1.80
2022-09-15T07:10:35.331Z,1.75
2022-09-15T07:13:03.257Z,2.10
2022-09-15T07:15:31.425Z,1.60
2022-09-15T07:17:59.323Z,1.75
2022-09-15T07:20:27.366Z,1.95
2022-09-15T07:22:54.608Z,2.30
2022-09-15T07:25:21.804Z,1.90
2022-09-15T07:27:48.989Z,1.92
2022-09-15T07:30:16.212Z,2.78
2022-09-15T07:32:44.276Z,2.60
2022-09-15T07:35:11.602Z,2.95
2022-09-15T07:37:38.879Z,2.55
2022-09-15T07:40:07.283Z,2.53
2022-09-15T07:42:35.701Z,3.00
2022-09-15T07:45:08.922Z,2.20
2022-09-15T07:47:36.174Z,2.03
2022-09-15T07:50:05.932Z,2.88
2022-09-15T07:52:33.148Z,2.83
2022-09-15T07:55:00.415Z,3.50
2022-09-15T07:57:27.751Z,3.00
2022-09-15T07:59:54.980Z,3.05
2022-09-15T08:02:22.290Z,2.83
2022-09-15T08:04:49.704Z,2.50
2022-09-15T08:07:17.089Z,2.05
2022-09-15T08:09:44.328Z,2.50
2022-09-15T08:12:12.228Z,2.45
2022-09-15T08:14:39.771Z,2.30
2022-09-15T08:17:11.255Z,2.22
2022-09-15T08:19:38.778Z,2.13
2022-09-15T08:22:06.164Z,2.67
2022-09-15T08:24:33.554Z,3.70
2022-09-15T08:27:00.730Z,2.47
2022-09-15T08:29:29.140Z,3.10
2022-09-15T08:31:56.367Z,2.35
2022-09-15T08:34:23.720Z,3.17
2022-09-15T08:36:50.921Z,3.28
2022-09-15T08:39:18.100Z,2.72
2022-09-15T08:41:48.313Z,2.80
2022-09-15T08:44:16.077Z,3.38
2022-09-15T08:46:52.220Z,3.83
2022-09-15T08:49:57.927Z,3.67
2022-09-15T08:52:34.584Z,3.17
2022-09-15T08:55:09.315Z,3.20
2022-09-15T08:57:36.771Z,3.20
2022-09-15T09:00:04.509Z,2.85
2022-09-15T09:02:40.448Z,2.78
2022-09-15T09:05:29.582Z,2.50
2022-09-15T09:08:15.884Z,2.47
2022-09-15T09:10:53.472Z,3.40
2022-09-15T09:13:43.204Z,3.30
2022-09-15T09:16:31.972Z,2.50
2022-09-15T09:19:03.705Z,2.88
2022-09-15T09:21:36.331Z,3.15
2022-09-15T09:24:17.860Z,3.63
2022-09-15T09:26:51.672Z,3.70
2022-09-15T09:29:26.728Z,3.25
2022-09-15T09:31:55.781Z,4.32
2022-09-15T09:34:43.149Z,3.00
2022-09-15T09:37:14.123Z,2.85
2022-09-15T09:39:42.559Z,3.00
2022-09-15T09:42:15.247Z,4.65
2022-09-15T09:44:42.707Z,2.97
2022-09-15T09:47:10.426Z,3.50
2022-09-15T09:49:46.789Z,2.15
2022-09-15T09:52:31.575Z,3.13
2022-09-15T09:55:20.769Z,3.75
2022-09-15T09:57:48.009Z,2.80
2022-09-15T10:00:38.430Z,2.90
2022-09-15T10:03:17.922Z,3.05
2022-09-15T10:05:59.532Z,2.65
2022-09-15T10:08:26.983Z,3.13
2022-09-15T10:10:59.622Z,2.85
2022-09-15T10:13:26.883Z,2.40
2022-09-15T10:16:00.908Z,2.10
2022-09-15T10:18:30.143Z,2.17
2022-09-15T10:20:57.939Z,2.45
2022-09-15T10:23:28.499Z,2.65
2022-09-15T10:26:17.323Z,2.25
2022-09-15T10:29:04.683Z,2.83
2022-09-15T10:31:33.320Z,3.42
2022-09-15T10:34:30.628Z,2.88
2022-09-15T10:37:36.131Z,3.35
2022-09-15T10:40:21.278Z,2.30
2022-09-15T10:42:53.881Z,2.65
2022-09-15T10:45:26.502Z,2.83
2022-09-15T10:48:25.724Z,2.47
2022-09-15T10:50:59.390Z,2.70
2022-09-15T10:53:38.498Z,3.72
2022-09-15T10:56:11.531Z,2.85
2022-09-15T10:59:03.705Z,2.95
2022-09-15T11:01:30.895Z,3.28
2022-09-15T11:04:11.573Z,3.35
2022-09-15T11:06:47.740Z,2.72
2022-09-15T11:09:25.773Z,3.05
2022-09-15T11:12:05.328Z,3.00
2022-09-15T11:14:57.917Z,3.50
2022-09-15T11:17:43.587Z,2.58
2022-09-15T11:20:44.027Z,3.63
2022-09-15T11:23:11.482Z,2.90
2022-09-15T11:25:49.558Z,2.22
2022-09-15T11:28:28.903Z,2.83
2022-09-15T11:31:22.277Z,2.75
2022-09-15T11:33:55.473Z,3.10
2022-09-15T11:36:35.555Z,3.28
2022-09-15T11:39:29.477Z,3.17
2022-09-15T11:42:07.392Z,3.33
2022-09-15T11:44:34.558Z,3.33
2022-09-15T11:47:39.000Z,3.53
2022-09-15T11:50:21.084Z,3.35
2022-09-15T11:53:05.590Z,3.45
2022-09-15T11:55:55.134Z,2.78
2022-09-15T11:58:34.430Z,4.03
2022-09-15T12:01:07.491Z,4.03
2022-09-15T12:03:44.606Z,3.83
2022-09-15T12:06:21.516Z,3.50
2022-09-15T12:08:51.460Z,5.63
2022-09-15T12:11:26.115Z,4.43
2022-09-15T12:13:55.261Z,3.53
2022-09-15T12:16:24.223Z,3.83
2022-09-15T12:19:14.536Z,4.80
2022-09-15T12:21:54.426Z,5.65
2022-09-15T12:24:43.952Z,6.18
2022-09-15T12:27:21.601Z,5.10
2022-09-15T12:29:56.215Z,4.30
2022-09-15T12:32:32.035Z,4.75
2022-09-15T12:35:20.360Z,3.20
2022-09-15T12:37:53.317Z,3.80
2022-09-15T12:40:37.572Z,3.17
2022-09-15T12:43:10.963Z,3.38
2022-09-15T12:45:39.536Z,3.55
2022-09-15T12:48:18.765Z,3.60
2022-09-15T12:51:02.120Z,2.20
2022-09-15T12:56:01.883Z,2.20
2022-09-15T12:58:37.605Z,1.58
2022-09-15T13:01:23.335Z,2.00
2022-09-15T13:03:50.874Z,1.60
2022-09-15T13:06:30.779Z,2.85
2022-09-15T13:09:06.636Z,2.38
2022-09-15T13:11:39.435Z,1.75
2022-09-15T13:14:21.119Z,1.77
2022-09-15T13:16:52.201Z,1.60
2022-09-15T13:19:43.984Z,1.75
2022-09-15T13:22:11.104Z,2.03
2022-09-15T13:24:59.217Z,1.60
2022-09-15T13:27:38.312Z,2.13
2022-09-15T13:30:20.665Z,2.30
2022-09-15T13:33:12.111Z,2.05
2022-09-15T13:35:57.750Z,1.60
2022-09-15T13:38:51.959Z,2.05
2022-09-15T13:41:53.927Z,1.73
2022-09-15T13:44:42.268Z,1.88
2022-09-15T13:47:36.504Z,3.65
2022-09-15T13:50:04.235Z,2.85
2022-09-15T13:53:02.512Z,1.55
2022-09-15T13:55:36.825Z,2.15
2022-09-15T14:00:55.069Z,4.28
2022-09-15T14:03:51.248Z,2.20
2022-09-15T14:06:25.916Z,2.75
2022-09-15T14:08:57.283Z,2.47
2022-09-15T14:11:35.547Z,3.22
2022-09-15T14:14:29.660Z,2.08
2022-09-15T14:16:57.538Z,3.00
2022-09-15T14:19:35.751Z,2.75
2022-09-15T14:22:27.386Z,2.35
2022-09-15T14:24:57.277Z,3.50
2022-09-15T14:27:30.568Z,2.70
2022-09-15T14:30:01.519Z,2.63
2022-09-15T14:32:31.871Z,3.95
2022-09-15T14:35:03.950Z,4.43
2022-09-15T14:37:34.782Z,2.78
2022-09-15T14:40:18.387Z,2.72
2022-09-15T14:42:45.763Z,3.08
2022-09-15T14:48:15.868Z,3.30
2022-09-15T14:50:54.287Z,3.15
2022-09-15T14:53:24.704Z,3.13
2022-09-15T14:55:57.682Z,4.85
2022-09-15T14:58:36.896Z,3.15
2022-09-15T15:01:15.632Z,2.65
2022-09-15T15:03:49.747Z,3.95
2022-09-15T15:06:42.720Z,2.78
2022-09-15T15:09:21.487Z,2.40
2022-09-15T15:11:53.032Z,3.67
2022-09-15T15:14:20.624Z,3.08
2022-09-15T15:16:53.815Z,2.60
2022-09-15T15:22:21.364Z,3.00
2022-09-15T15:24:51.115Z,2.75
2022-09-15T15:27:33.251Z,3.97
2022-09-15T15:30:30.594Z,3.38
2022-09-15T15:33:17.410Z,4.28
2022-09-15T15:35:48.502Z,3.45
2022-09-15T15:38:18.433Z,2.78
2022-09-15T15:40:46.841Z,4.22
2022-09-15T15:43:13.987Z,4.47
2022-09-15T15:45:51.117Z,3.22
2022-09-15T15:48:18.363Z,3.50
2022-09-15T15:50:45.591Z,3.33
2022-09-15T15:53:12.803Z,4.50
2022-09-15T15:55:42.353Z,6.22
2022-09-15T15:58:11.190Z,2.97
2022-09-15T16:00:46.022Z,2.97
2022-09-15T16:03:15.185Z,3.13
2022-09-15T16:05:45.274Z,3.15
2022-09-15T16:08:20.739Z,3.33
2022-09-15T16:10:49.452Z,3.33
2022-09-15T16:13:19.279Z,3.28
2022-09-15T16:15:46.778Z,4.05
2022-09-15T16:18:14.386Z,3.45
2022-09-15T16:20:42.093Z,3.47
2022-09-15T16:23:20.985Z,3.92
2022-09-15T16:25:57.643Z,3.63
2022-09-15T16:28:24.986Z,3.05
2022-09-15T16:30:52.240Z,3.30
2022-09-15T16:33:19.878Z,4.65
2022-09-15T16:35:55.056Z,4.20
2022-09-15T16:38:25.952Z,3.85
2022-09-15T16:40:53.267Z,4.80
2022-09-15T16:43:23.364Z,8.82
2022-09-15T16:45:52.024Z,8.52
2022-09-15T16:48:19.227Z,7.00
2022-09-15T16:51:16.076Z,5.95
2022-09-15T16:53:34.865Z,6.50
2022-09-15T16:56:02.547Z,6.05
2022-09-15T16:58:29.792Z,8.48
2022-09-15T17:00:58.711Z,6.15
2022-09-15T17:03:27.523Z,6.15
2022-09-15T17:05:57.423Z,5.07
2022-09-15T17:08:34.811Z,4.72
2022-09-15T17:11:04.631Z,5.60
2022-09-15T17:13:33.975Z,4.45
2022-09-15T17:16:02.170Z,3.92
2022-09-15T17:18:30.258Z,4.20
2022-09-15T17:20:57.867Z,5.60
2022-09-15T17:23:27.658Z,3.90
2022-09-15T17:25:58.965Z,3.58
2022-09-15T17:28:31.113Z,4.72
2022-09-15T17:31:03.948Z,3.60
2022-09-15T17:33:32.470Z,6.18
2022-09-15T17:36:00.052Z,3.80
2022-09-15T17:38:27.533Z,3.63
2022-09-15T17:40:57.750Z,4.40
2022-09-15T17:43:28.812Z,6.60
2022-09-15T17:45:56.482Z,4.18
2022-09-15T17:48:24.669Z,3.70
2022-09-15T17:50:52.330Z,3.50
2022-09-15T17:53:28.216Z,4.75
2022-09-15T17:55:56.092Z,5.53
2022-09-15T17:58:26.656Z,4.90
2022-09-15T18:00:54.159Z,4.60
2022-09-15T18:03:33.257Z,5.85
2022-09-15T18:06:04.315Z,5.05
2022-09-15T18:08:33.154Z,5.10
2022-09-15T18:11:00.762Z,4.28
2022-09-15T18:13:29.740Z,5.70
2022-09-15T18:15:57.920Z,4.43
2022-09-15T18:18:27.549Z,4.95
2022-09-15T18:20:57.862Z,4.68
2022-09-15T18:23:26.863Z,4.38
2022-09-15T18:25:54.034Z,5.07
2022-09-15T18:28:21.341Z,13.65
2022-09-15T18:30:49.866Z,13.85
2022-09-15T18:33:25.013Z,15.70
2022-09-15T18:35:58.829Z,13.05
2022-09-15T18:38:27.121Z,11.88
2022-09-15T18:40:56.383Z,13.95
2022-09-15T18:43:26.320Z,10.70
2022-09-15T18:45:58.839Z,12.43
2022-09-15T18:48:26.127Z,11.10
2022-09-15T18:50:53.464Z,10.25
2022-09-15T18:53:20.743Z,8.73
2022-09-15T18:55:47.939Z,8.18
2022-09-15T18:58:15.131Z,7.88
2022-09-15T19:00:45.351Z,6.85
2022-09-15T19:03:14.074Z,8.52
2022-09-15T19:05:41.916Z,7.38
2022-09-15T19:08:09.274Z,8.05
2022-09-15T19:10:39.715Z,7.75
2022-09-15T19:13:06.950Z,7.10
2022-09-15T19:15:34.623Z,6.13
2022-09-15T19:18:02.127Z,6.85
2022-09-15T19:20:30.084Z,5.63
2022-09-15T19:22:57.925Z,5.05
2022-09-15T19:25:25.160Z,4.50
2022-09-15T19:27:52.354Z,5.43
2022-09-15T19:30:19.670Z,4.40
2022-09-15T19:32:46.898Z,5.43
2022-09-15T19:35:14.161Z,6.13
2022-09-15T19:37:42.271Z,6.32
2022-09-15T19:40:11.933Z,6.82
2022-09-15T19:42:40.378Z,6.93
2022-09-15T19:45:09.727Z,4.25
2022-09-15T19:47:37.636Z,4.60
2022-09-15T19:50:06.795Z,4.20
2022-09-15T19:52:33.995Z,4.22
2022-09-15T19:55:01.258Z,3.70
2022-09-15T19:57:28.542Z,4.57
2022-09-15T19:59:55.739Z,3.63
2022-09-15T20:02:23.086Z,3.30
2022-09-15T20:04:50.388Z,3.60
2022-09-15T20:07:17.555Z,6.53
2022-09-15T20:09:44.853Z,4.15
2022-09-15T20:12:12.096Z,3.58
2022-09-15T20:14:40.435Z,3.83
2022-09-15T20:17:07.687Z,3.13
2022-09-15T20:19:35.764Z,3.50
2022-09-15T20:22:04.297Z,3.30
2022-09-15T20:24:31.591Z,2.72
2022-09-15T20:26:59.263Z,2.75
2022-09-15T20:29:26.509Z,3.80
2022-09-15T20:31:53.955Z,2.75
2022-09-15T20:34:21.176Z,2.90
2022-09-15T20:36:48.912Z,3.53
2022-09-15T20:39:16.247Z,2.90
2022-09-15T20:41:46.558Z,2.80
2022-09-15T20:44:14.610Z,3.72
2022-09-15T20:46:42.622Z,2.95
2022-09-15T20:49:11.004Z,3.33
2022-09-15T20:51:38.216Z,2.95
2022-09-15T20:54:05.677Z,3.55
2022-09-15T20:56:35.075Z,2.63
2022-09-15T20:59:03.666Z,2.83
2022-09-15T21:01:38.939Z,2.38
2022-09-15T21:04:08.197Z,2.60
2022-09-15T21:06:36.376Z,2.97
2022-09-15T21:09:05.073Z,2.95
2022-09-15T21:11:32.770Z,2.88
2022-09-15T21:14:00.876Z,3.67
2022-09-15T21:16:29.118Z,1.90
2022-09-15T21:18:57.875Z,2.72
2022-09-15T21:21:30.207Z,3.50
2022-09-15T21:24:01.765Z,1.85
2022-09-15T21:26:31.799Z,3.42
2022-09-15T21:28:59.192Z,2.47
2022-09-15T21:31:29.284Z,3.03
2022-09-15T21:33:58.028Z,2.65
2022-09-15T21:36:29.988Z,2.03
2022-09-15T21:38:58.784Z,2.40
2022-09-15T21:41:31.545Z,2.00
2022-09-15T21:43:59.342Z,2.60
2022-09-15T21:46:29.745Z,2.85
2022-09-15T21:48:58.827Z,3.80
2022-09-15T21:51:28.664Z,3.20
2022-09-15T21:53:57.776Z,2.63
2022-09-15T21:56:26.368Z,2.78
2022-09-15T21:58:54.332Z,2.60
2022-09-15T22:01:26.260Z,2.65
2022-09-15T22:03:57.502Z,2.85
2022-09-15T22:06:29.142Z,2.60
2022-09-15T22:08:56.466Z,3.53
2022-09-15T22:11:24.261Z,2.40
2022-09-15T22:13:51.632Z,2.30
2022-09-15T22:16:24.062Z,2.00
2022-09-15T22:18:52.145Z,2.27
2022-09-15T22:21:29.015Z,2.72
2022-09-15T22:23:58.384Z,2.15
2022-09-15T22:26:28.362Z,2.25
2022-09-15T22:28:56.782Z,2.20
2022-09-15T22:31:24.450Z,2.65
2022-09-15T22:33:52.669Z,2.88
2022-09-15T22:36:29.308Z,2.13
2022-09-15T22:39:04.144Z,1.88
2022-09-15T22:41:36.263Z,2.30
2022-09-15T22:44:04.446Z,2.10
2022-09-15T22:46:32.400Z,2.13
2022-09-15T22:49:00.092Z,2.20
2022-09-15T22:51:27.306Z,2.55
2022-09-15T22:53:56.683Z,2.78
2022-09-15T22:56:26.091Z,2.25
2022-09-15T22:58:54.562Z,2.42
2022-09-15T23:01:24.944Z,2.80
2022-09-15T23:03:54.089Z,2.60
2022-09-15T23:06:22.828Z,2.30
2022-09-15T23:08:56.291Z,3.75
2022-09-15T23:11:24.950Z,2.80
2022-09-15T23:13:53.308Z,2.90
2022-09-15T23:16:22.316Z,2.33
2022-09-15T23:18:51.017Z,3.50
2022-09-15T23:21:18.394Z,2.40
2022-09-15T23:23:48.789Z,2.90
2022-09-15T23:26:18.596Z,3.40
2022-09-15T23:28:46.645Z,2.70
2022-09-15T23:31:14.085Z,2.22
2022-09-15T23:33:42.047Z,2.25
2022-09-15T23:36:12.666Z,1.83
2022-09-15T23:38:41.397Z,2.00
2022-09-15T23:41:10.367Z,2.83
2022-09-15T23:43:37.613Z,1.90
2022-09-15T23:46:05.171Z,2.28
2022-09-15T23:48:32.591Z,2.13
2022-09-15T23:51:00.579Z,2.22
2022-09-15T23:53:28.351Z,2.83
2022-09-15T23:55:55.610Z,1.88
2022-09-15T23:58:22.834Z,2.17
